Aérodrome :
LOGIN :

S'inscrire | Disclaimer

   EN    FR    IT 

 










Légende :    VFR   VFR Marginal   IFR   IFR Intensif   IFR Très Intensif
Visi : 
Plafond : 
>= 8 km
>= 3000ft
5 à 8 km
1000 à 3000 ft
1500m à 5 km
500 à 1000 ft
800 à 1500m
200 à 500 ft
< 800m
< 200 ft
Symboles :   Orages  Brouillard  Fortes neiges  Fortes précipitations  Vent > 20 kt
SIGMETs :   Divers  Orages  Givrage  Turbulence  Onde Orograph.  Cendres Volcan.







- Altitude de l'aérodrome : 461 ft
- Code IATA : WIE


ETOU - Wiesbaden Army

DERNIER METAR :
  • 291258Z AUTO 28011KT 9999 OVC065 18/06 A3028 RMK AO2 SLP255 T01810055

METARs EXPIRÉS :
  • 291158Z AUTO 26008KT 9999 OVC080 17/06 A3029 RMK AO2 SLP259 T01740056 10184 20088 58008
  • 291058Z AUTO 27012KT 9999 CLR 17/07 A3030 RMK AO2 SLP262 T01700067

TAF TAF ETOU
Valide du 29 à 11h jusqu'au 30 à 17h UTC


291107Z 2911/3017 26010G15KT 9999 BKN050 BKN200 QNH3024INS
BECMG 2917/2918 25006KT 9999 BKN030 BKN200 QNH3027INS
BECMG 2922/2923 23006KT 8000 BR BKN050 BKN200 QNH3033INS
TEMPO 3002/3007 5000 BR
BECMG 3006/3007 18006KT 9999 NSW SCT040 QNH3027INS TX20/2913Z TN06/3005Z
Pas de NOTAMs connus pour ce terrain.



MET'MAP, la Météo Aéronautique d'un coup d'oeil ! - Copyright ORBIFLY Décembre 2007 - Disclaimer

ORBIFLY MET'MAP TEAM :

Programmation & Développement : Alexandra Zaïnal
Conception & Développement : Baudouin d'Aumeries
Co-Programmation & Développement : Marc-Olivier Méhu
Soutien technique & logistique : Manuel Goepfert

Contact : metmap@orbifly.com




SOURCES & CREDITS :

   NOAA